createdAt,value
2023-10-09T00:02:11.388Z,100564.41
2023-10-09T00:04:42.863Z,100559.22
2023-10-09T00:07:11.540Z,100559.78
2023-10-09T00:09:48.369Z,100552.56
2023-10-09T00:12:24.357Z,100562.78
2023-10-09T00:14:56.769Z,100557.06
2023-10-09T00:17:24.581Z,100556.00
2023-10-09T00:19:52.606Z,100549.22
2023-10-09T00:22:26.249Z,100542.69
2023-10-09T00:25:28.524Z,100535.91
2023-10-09T00:27:55.097Z,100532.69
2023-10-09T00:30:31.234Z,100530.19
2023-10-09T00:33:02.432Z,100506.94
2023-10-09T00:35:40.861Z,100501.50
2023-10-09T00:38:25.417Z,100499.09
2023-10-09T00:41:08.944Z,100493.56
2023-10-09T00:43:37.736Z,100475.28
2023-10-09T00:46:18.020Z,100448.22
2023-10-09T00:48:48.800Z,100430.47
2023-10-09T00:51:20.539Z,100406.41
2023-10-09T00:53:53.046Z,100416.94
2023-10-09T00:56:29.929Z,100408.69
2023-10-09T00:59:15.524Z,100436.88
2023-10-09T01:02:03.078Z,100435.59
2023-10-09T01:04:31.145Z,100439.34
2023-10-09T01:07:16.807Z,100443.19
2023-10-09T01:09:45.662Z,100449.69
2023-10-09T01:12:18.530Z,100441.94
2023-10-09T01:14:46.114Z,100431.69
2023-10-09T01:17:13.489Z,100430.63
2023-10-09T01:19:40.342Z,100438.47
2023-10-09T01:22:17.216Z,100433.25
2023-10-09T01:24:44.968Z,100440.63
2023-10-09T01:27:18.056Z,100420.44
2023-10-09T01:29:47.471Z,100410.13
2023-10-09T01:32:18.014Z,100406.06
2023-10-09T01:34:51.741Z,100400.69
2023-10-09T01:37:21.506Z,100375.22
2023-10-09T01:39:52.702Z,100379.44
2023-10-09T01:42:49.597Z,100378.84
2023-10-09T01:45:21.921Z,100388.31
2023-10-09T01:47:57.916Z,100385.09
2023-10-09T01:50:43.462Z,100378.53
2023-10-09T01:53:10.237Z,100388.31
2023-10-09T01:55:38.791Z,100391.94
2023-10-09T01:58:17.904Z,100388.72
2023-10-09T02:00:49.608Z,100371.75
2023-10-09T02:03:16.868Z,100357.59
2023-10-09T02:05:43.715Z,100349.19
2023-10-09T02:08:11.587Z,100337.44
2023-10-09T02:10:40.787Z,100322.13
2023-10-09T02:13:11.172Z,100327.09
2023-10-09T02:15:44.578Z,100307.41
2023-10-09T02:18:24.039Z,100306.09
2023-10-09T02:21:00.801Z,100295.94
2023-10-09T02:23:40.313Z,100306.66
2023-10-09T02:26:08.469Z,100303.88
2023-10-09T02:28:35.920Z,100301.97
2023-10-09T02:31:11.326Z,100287.75
2023-10-09T02:33:40.259Z,100269.69
2023-10-09T02:36:08.009Z,100267.56
2023-10-09T02:38:37.076Z,100268.97
2023-10-09T02:41:03.826Z,100244.84
2023-10-09T02:43:47.619Z,100269.78
2023-10-09T02:46:30.497Z,100253.69
2023-10-09T02:49:04.670Z,100242.19
2023-10-09T02:51:34.989Z,100247.44
2023-10-09T02:54:23.545Z,100246.34
2023-10-09T02:56:57.356Z,100232.97
2023-10-09T02:59:24.874Z,100225.06
2023-10-09T03:01:55.068Z,100220.69
2023-10-09T03:04:24.986Z,100198.84
2023-10-09T03:09:33.498Z,100196.84
2023-10-09T03:12:06.767Z,100179.66
2023-10-09T03:14:39.216Z,100177.44
2023-10-09T03:17:08.229Z,100173.88
2023-10-09T03:19:39.011Z,100156.97
2023-10-09T03:22:10.652Z,100153.97
2023-10-09T03:24:38.975Z,100146.56
2023-10-09T03:27:06.099Z,100137.88
2023-10-09T03:29:32.783Z,100129.72
2023-10-09T03:32:01.211Z,100113.91
2023-10-09T03:34:29.106Z,100105.50
2023-10-09T03:37:21.920Z,100107.44
2023-10-09T03:39:49.572Z,100095.44
2023-10-09T03:42:23.749Z,100108.13
2023-10-09T03:44:53.823Z,100115.13
2023-10-09T03:47:24.284Z,100125.81
2023-10-09T03:49:55.319Z,100117.97
2023-10-09T03:52:26.684Z,100124.75
2023-10-09T03:54:53.819Z,100130.28
2023-10-09T03:57:20.800Z,100124.50
2023-10-09T03:59:52.836Z,100125.81
2023-10-09T04:02:19.664Z,100143.00
2023-10-09T04:04:48.662Z,100135.97
2023-10-09T04:07:18.986Z,100113.38
2023-10-09T04:10:11.403Z,100114.44
2023-10-09T04:12:40.835Z,100115.84
2023-10-09T04:15:16.217Z,100127.59
2023-10-09T04:17:44.350Z,100129.19
2023-10-09T04:20:37.172Z,100119.41
2023-10-09T04:23:07.513Z,100126.31
2023-10-09T04:25:43.649Z,100121.69
2023-10-09T04:28:20.345Z,100134.56
2023-10-09T04:30:48.593Z,100124.78
2023-10-09T04:33:33.919Z,100113.59
2023-10-09T04:36:23.547Z,100107.88
2023-10-09T04:39:05.790Z,100113.66
2023-10-09T04:41:53.153Z,100109.56
2023-10-09T04:44:21.721Z,100120.97
2023-10-09T04:47:08.296Z,100114.69
2023-10-09T04:49:48.938Z,100101.03
2023-10-09T04:52:30.404Z,100097.22
2023-10-09T04:55:13.749Z,100095.53
2023-10-09T04:57:45.062Z,100081.81
2023-10-09T05:00:27.851Z,100077.19
2023-10-09T05:02:58.130Z,100067.09
2023-10-09T05:05:42.147Z,100065.91
2023-10-09T05:08:31.051Z,100073.53
2023-10-09T05:10:58.737Z,100062.59
2023-10-09T05:13:42.900Z,100062.34
2023-10-09T05:16:20.863Z,100077.34
2023-10-09T05:18:57.363Z,100061.53
2023-10-09T05:21:33.566Z,100039.66
2023-10-09T05:24:14.497Z,100052.28
2023-10-09T05:26:49.831Z,100044.31
2023-10-09T05:29:30.323Z,100041.59
2023-10-09T05:32:15.382Z,100038.63
2023-10-09T05:35:01.510Z,100026.59
2023-10-09T05:37:33.968Z,100023.28
2023-10-09T05:40:03.550Z,100018.94
2023-10-09T05:42:44.764Z,100020.03
2023-10-09T05:45:20.518Z,100015.44
2023-10-09T05:48:07.928Z,100026.09
2023-10-09T05:50:56.685Z,100044.34
2023-10-09T05:53:41.855Z,100049.88
2023-10-09T05:56:27.131Z,100050.19
2023-10-09T05:59:12.181Z,100043.94
2023-10-09T06:01:41.668Z,100049.94
2023-10-09T06:04:17.625Z,100041.22
2023-10-09T06:06:56.689Z,100050.34
2023-10-09T06:09:23.945Z,100044.91
2023-10-09T06:11:56.419Z,100040.81
2023-10-09T06:14:30.954Z,100048.47
2023-10-09T06:17:02.405Z,100053.16
2023-10-09T06:19:29.772Z,100053.19
2023-10-09T06:22:13.958Z,100042.81
2023-10-09T06:24:55.610Z,100034.31
2023-10-09T06:27:32.761Z,100036.81
2023-10-09T06:30:19.034Z,100017.44
2023-10-09T06:32:52.404Z,100035.75
2023-10-09T06:35:19.430Z,100030.06
2023-10-09T06:38:04.480Z,100031.75
2023-10-09T06:40:55.253Z,100026.88
2023-10-09T06:43:23.342Z,100028.25
2023-10-09T06:45:59.955Z,100029.09
2023-10-09T06:48:36.013Z,100028.78
2023-10-09T06:51:40.412Z,100035.31
2023-10-09T06:54:10.865Z,100022.78
2023-10-09T06:56:37.846Z,100033.44
2023-10-09T06:59:24.637Z,100033.72
2023-10-09T07:02:10.574Z,100047.38
2023-10-09T07:04:38.050Z,100052.03
2023-10-09T07:07:25.326Z,100046.00
2023-10-09T07:10:11.499Z,100042.22
2023-10-09T07:12:43.865Z,100047.75
2023-10-09T07:15:43.450Z,100055.34
2023-10-09T07:18:24.827Z,100057.59
2023-10-09T07:21:00.701Z,100056.78
2023-10-09T07:23:33.941Z,100072.94
2023-10-09T07:26:19.333Z,100068.25
2023-10-09T07:28:49.653Z,100073.50
2023-10-09T07:31:40.947Z,100065.53
2023-10-09T07:34:28.067Z,100062.47
2023-10-09T07:36:57.729Z,100065.44
2023-10-09T07:39:25.172Z,100086.19
2023-10-09T07:42:02.906Z,100074.16
2023-10-09T07:44:37.997Z,100075.56
2023-10-09T07:47:16.508Z,100077.28
2023-10-09T07:49:43.544Z,100057.84
2023-10-09T07:52:10.303Z,100083.06
2023-10-09T07:54:37.664Z,100087.22
2023-10-09T07:57:16.444Z,100091.03
2023-10-09T07:59:55.594Z,100094.13
2023-10-09T08:02:32.789Z,100094.16
2023-10-09T08:05:20.253Z,100089.78
2023-10-09T08:08:31.090Z,100079.94
2023-10-09T08:11:41.148Z,100094.97
2023-10-09T08:14:22.211Z,100081.88
2023-10-09T08:16:53.029Z,100085.97
2023-10-09T08:19:34.847Z,100087.09
2023-10-09T08:22:19.405Z,100078.63
2023-10-09T08:24:53.829Z,100082.75
2023-10-09T08:27:32.449Z,100079.47
2023-10-09T08:30:19.163Z,100070.41
2023-10-09T08:35:49.365Z,100084.09
2023-10-09T08:38:24.482Z,100093.16
2023-10-09T08:40:55.644Z,100095.31
2023-10-09T08:43:23.352Z,100095.59
2023-10-09T08:45:54.280Z,100102.44
2023-10-09T08:48:22.744Z,100095.84
2023-10-09T08:50:55.417Z,100094.19
2023-10-09T08:53:24.953Z,100103.19
2023-10-09T08:55:52.419Z,100105.38
2023-10-09T08:58:26.106Z,100103.72
2023-10-09T09:00:53.746Z,100097.41
2023-10-09T09:03:26.954Z,100103.19
2023-10-09T09:06:05.839Z,100108.09
2023-10-09T09:08:37.810Z,100105.38
2023-10-09T09:11:23.593Z,100114.44
2023-10-09T09:14:07.971Z,100120.50
2023-10-09T09:16:37.699Z,100115.28
2023-10-09T09:19:09.595Z,100115.81
2023-10-09T09:22:12.849Z,100117.19
2023-10-09T09:24:40.577Z,100119.94
2023-10-09T09:27:19.833Z,100119.91
2023-10-09T09:29:53.897Z,100119.88
2023-10-09T09:32:36.868Z,100124.00
2023-10-09T09:35:07.359Z,100118.75
2023-10-09T09:37:55.484Z,100118.50
2023-10-09T09:40:34.709Z,100108.91
2023-10-09T09:43:22.580Z,100108.31
2023-10-09T09:45:52.904Z,100101.16
2023-10-09T09:48:20.142Z,100098.66
2023-10-09T09:50:55.055Z,100117.03
2023-10-09T09:53:24.368Z,100125.53
2023-10-09T09:55:57.390Z,100124.47
2023-10-09T09:58:43.854Z,100131.59
2023-10-09T10:01:17.555Z,100130.78
2023-10-09T10:03:50.647Z,100132.16
2023-10-09T10:06:21.210Z,100118.94
2023-10-09T10:08:52.232Z,100116.69
2023-10-09T10:11:49.578Z,100117.25
2023-10-09T10:14:42.409Z,100107.88
2023-10-09T10:17:18.845Z,100109.50
2023-10-09T10:20:00.933Z,100119.66
2023-10-09T10:22:32.050Z,100112.81
2023-10-09T10:24:59.670Z,100129.53
2023-10-09T10:27:27.842Z,100121.91
2023-10-09T10:30:25.105Z,100118.31
2023-10-09T10:32:54.802Z,100124.63
2023-10-09T10:35:33.602Z,100120.25
2023-10-09T10:38:09.476Z,100122.66
2023-10-09T10:40:47.921Z,100114.16
2023-10-09T10:43:33.491Z,100108.63
2023-10-09T10:46:25.162Z,100094.59
2023-10-09T10:49:01.784Z,100110.81
2023-10-09T10:51:49.416Z,100101.44
2023-10-09T10:54:35.088Z,100090.44
2023-10-09T10:57:01.820Z,100104.97
2023-10-09T10:59:37.844Z,100091.22
2023-10-09T11:02:11.512Z,100084.22
2023-10-09T11:04:45.557Z,100077.59
2023-10-09T11:07:26.158Z,100073.25
2023-10-09T11:10:07.258Z,100070.50
2023-10-09T11:12:43.934Z,100080.69
2023-10-09T11:15:24.170Z,100068.56
2023-10-09T11:18:08.701Z,100073.25
2023-10-09T11:20:37.484Z,100076.84
2023-10-09T11:23:11.435Z,100067.22
2023-10-09T11:25:53.747Z,100073.00
2023-10-09T11:28:32.444Z,100053.50
2023-10-09T11:31:17.958Z,100060.38
2023-10-09T11:33:49.964Z,100057.69
2023-10-09T11:36:17.463Z,100049.19
2023-10-09T11:38:49.441Z,100061.03
2023-10-09T11:41:21.098Z,100072.56
2023-10-09T11:43:55.625Z,100084.91
2023-10-09T11:46:39.006Z,100078.63
2023-10-09T11:49:22.259Z,100081.06
2023-10-09T11:52:07.883Z,100073.63
2023-10-09T11:54:36.209Z,100073.03
2023-10-09T11:57:03.958Z,100077.66
2023-10-09T11:59:42.448Z,100070.28
2023-10-09T12:02:14.084Z,100059.28
2023-10-09T12:04:46.772Z,100056.41
2023-10-09T12:07:14.286Z,100054.69
2023-10-09T12:09:41.549Z,100055.50
2023-10-09T12:12:12.400Z,100074.47
2023-10-09T12:14:39.100Z,100063.75
2023-10-09T12:17:07.100Z,100056.91
2023-10-09T12:19:35.006Z,100049.13
2023-10-09T12:22:02.552Z,100052.38
2023-10-09T12:24:30.286Z,100048.03
2023-10-09T12:26:57.289Z,100045.06
2023-10-09T12:29:24.961Z,100056.66
2023-10-09T12:31:59.280Z,100051.16
2023-10-09T12:34:29.360Z,100064.06
2023-10-09T12:36:56.795Z,100057.50
2023-10-09T12:39:23.596Z,100054.47
2023-10-09T12:41:54.659Z,100064.66
2023-10-09T12:44:21.484Z,100068.81
2023-10-09T12:46:54.296Z,100067.13
2023-10-09T12:49:28.023Z,100056.59
2023-10-09T12:51:55.662Z,100055.19
2023-10-09T12:54:28.368Z,100058.75
2023-10-09T12:56:56.510Z,100054.66
2023-10-09T12:59:25.682Z,100049.41
2023-10-09T13:01:59.021Z,100053.22
2023-10-09T13:04:33.251Z,100062.28
2023-10-09T13:07:05.036Z,100058.47
2023-10-09T13:09:43.716Z,100053.78
2023-10-09T13:12:19.231Z,100049.69
2023-10-09T13:14:48.538Z,100043.09
2023-10-09T13:17:15.381Z,100044.50
2023-10-09T13:19:42.229Z,100040.09
2023-10-09T13:22:14.070Z,100035.19
2023-10-09T13:24:43.369Z,100046.19
2023-10-09T13:27:11.045Z,100040.50
2023-10-09T13:29:43.666Z,100045.69
2023-10-09T13:32:16.340Z,100040.88
2023-10-09T13:34:46.151Z,100038.63
2023-10-09T13:37:15.024Z,100049.63
2023-10-09T13:39:53.600Z,100046.38
2023-10-09T13:42:20.790Z,100041.41
2023-10-09T13:44:50.047Z,100033.69
2023-10-09T13:47:24.514Z,100038.63
2023-10-09T13:49:51.977Z,100034.53
2023-10-09T13:52:19.706Z,100040.00
2023-10-09T13:54:49.427Z,100055.06
2023-10-09T13:57:16.751Z,100056.72
2023-10-09T13:59:50.160Z,100052.31
2023-10-09T14:02:19.349Z,100042.47
2023-10-09T14:04:53.508Z,100051.56
2023-10-09T14:07:21.398Z,100047.72
2023-10-09T14:09:57.205Z,100050.47
2023-10-09T14:12:25.934Z,100048.31
2023-10-09T14:14:57.891Z,100054.91
2023-10-09T14:17:25.121Z,100059.56
2023-10-09T14:19:53.338Z,100047.78
2023-10-09T14:22:21.509Z,100051.91
2023-10-09T14:24:56.670Z,100050.78
2023-10-09T14:27:28.018Z,100032.09
2023-10-09T14:30:02.044Z,100029.06
2023-10-09T14:32:38.308Z,100035.06
2023-10-09T14:35:14.323Z,100043.31
2023-10-09T14:37:42.170Z,100037.31
2023-10-09T14:40:14.533Z,100041.09
2023-10-09T14:42:46.201Z,100048.28
2023-10-09T14:45:16.835Z,100054.59
2023-10-09T14:47:44.031Z,100050.16
2023-10-09T14:50:14.616Z,100050.16
2023-10-09T14:52:41.863Z,100053.78
2023-10-09T14:55:10.896Z,100048.53
2023-10-09T14:57:37.724Z,100055.13
2023-10-09T15:00:14.839Z,100050.72
2023-10-09T15:02:41.448Z,100049.09
2023-10-09T15:05:13.097Z,100063.91
2023-10-09T15:07:43.851Z,100057.03
2023-10-09T15:10:16.331Z,100060.09
2023-10-09T15:12:44.208Z,100054.00
2023-10-09T15:15:18.656Z,100053.22
2023-10-09T15:17:49.309Z,100070.50
2023-10-09T15:20:16.785Z,100063.13
2023-10-09T15:22:44.714Z,100067.22
2023-10-09T15:25:15.703Z,100059.28
2023-10-09T15:27:43.869Z,100070.28
2023-10-09T15:30:14.737Z,100071.06
2023-10-09T15:32:45.466Z,100071.66
2023-10-09T15:35:14.657Z,100069.72
2023-10-09T15:37:45.131Z,100072.47
2023-10-09T15:40:16.017Z,100074.38
2023-10-09T15:42:44.753Z,100072.22
2023-10-09T15:45:13.225Z,100072.78
2023-10-09T15:47:40.926Z,100074.44
2023-10-09T15:50:13.094Z,100081.03
2023-10-09T15:52:40.341Z,100081.59
2023-10-09T15:55:14.506Z,100079.09
2023-10-09T15:57:42.755Z,100085.16
2023-10-09T16:00:18.947Z,100082.69
2023-10-09T16:02:49.050Z,100087.34
2023-10-09T16:05:19.354Z,100094.50
2023-10-09T16:08:07.158Z,100080.50
2023-10-09T16:10:35.864Z,100089.53
2023-10-09T16:13:02.767Z,100092.00
2023-10-09T16:15:29.761Z,100091.22
2023-10-09T16:18:07.751Z,100099.16
2023-10-09T16:20:37.744Z,100106.88
2023-10-09T16:23:05.947Z,100115.94
2023-10-09T16:25:35.228Z,100114.56
2023-10-09T16:28:05.424Z,100108.84
2023-10-09T16:30:32.149Z,100101.97
2023-10-09T16:32:59.302Z,100105.84
2023-10-09T16:35:35.420Z,100105.56
2023-10-09T16:38:06.169Z,100108.03
2023-10-09T16:40:33.103Z,100100.91
2023-10-09T16:43:02.132Z,100095.72
2023-10-09T16:45:28.820Z,100089.38
2023-10-09T16:48:00.177Z,100095.69
2023-10-09T16:50:29.414Z,100105.56
2023-10-09T16:52:56.502Z,100100.34
2023-10-09T16:55:25.544Z,100106.09
2023-10-09T16:57:52.465Z,100111.88
2023-10-09T17:00:29.576Z,100111.59
2023-10-09T17:02:57.951Z,100104.75
2023-10-09T17:05:33.990Z,100114.34
2023-10-09T17:08:01.446Z,100125.06
2023-10-09T17:10:32.757Z,100116.50
2023-10-09T17:13:01.646Z,100112.94
2023-10-09T17:15:34.048Z,100126.09
2023-10-09T17:18:04.144Z,100129.97
2023-10-09T17:20:31.379Z,100120.63
2023-10-09T17:23:01.306Z,100124.75
2023-10-09T17:25:32.218Z,100130.25
2023-10-09T17:28:00.769Z,100122.53
2023-10-09T17:30:34.542Z,100118.13
2023-10-09T17:33:05.350Z,100135.16
2023-10-09T17:35:32.623Z,100126.38
2023-10-09T17:38:00.119Z,100132.13
2023-10-09T17:40:29.711Z,100130.47
2023-10-09T17:42:57.262Z,100121.44
2023-10-09T17:45:25.706Z,100122.53
2023-10-09T17:47:55.034Z,100124.19
2023-10-09T17:50:23.252Z,100129.66
2023-10-09T17:52:50.404Z,100130.72
2023-10-09T17:55:18.969Z,100132.38
2023-10-09T17:57:51.108Z,100128.28
2023-10-09T18:00:26.739Z,100132.91
2023-10-09T18:02:54.057Z,100137.56
2023-10-09T18:05:21.262Z,100135.13
2023-10-09T18:07:53.160Z,100135.66
2023-10-09T18:10:22.162Z,100132.06
2023-10-09T18:12:54.057Z,100135.38
2023-10-09T18:15:21.957Z,100128.75
2023-10-09T18:17:48.992Z,100130.72
2023-10-09T18:20:15.872Z,100127.97
2023-10-09T18:22:42.517Z,100124.91
2023-10-09T18:25:10.423Z,100130.94
2023-10-09T18:27:37.176Z,100128.50
2023-10-09T18:30:06.440Z,100130.69
2023-10-09T18:32:33.100Z,100127.94
2023-10-09T18:35:00.422Z,100130.69
2023-10-09T18:37:27.185Z,100127.06
2023-10-09T18:39:53.825Z,100122.41
2023-10-09T18:42:20.474Z,100129.56
2023-10-09T18:44:47.683Z,100126.81
2023-10-09T18:47:20.563Z,100127.06
2023-10-09T18:49:51.521Z,100131.16
2023-10-09T18:52:18.641Z,100130.84
2023-10-09T18:54:46.556Z,100137.19
2023-10-09T18:57:16.836Z,100131.63
2023-10-09T18:59:44.418Z,100140.13
2023-10-09T19:02:12.819Z,100135.75
2023-10-09T19:04:39.977Z,100134.06
2023-10-09T19:07:07.135Z,100128.88
2023-10-09T19:09:33.879Z,100138.22
2023-10-09T19:12:00.549Z,100128.88
2023-10-09T19:14:27.343Z,100136.78
2023-10-09T19:16:59.493Z,100132.41
2023-10-09T19:19:26.656Z,100142.56
2023-10-09T19:21:54.278Z,100146.66
2023-10-09T19:24:21.000Z,100139.00
2023-10-09T19:26:47.719Z,100132.09
2023-10-09T19:29:14.795Z,100135.91
2023-10-09T19:31:43.778Z,100140.59
2023-10-09T19:34:14.328Z,100137.84
2023-10-09T19:36:42.341Z,100135.97
2023-10-09T19:39:10.003Z,100138.63
2023-10-09T19:41:36.971Z,100146.34
2023-10-09T19:44:05.823Z,100146.06
2023-10-09T19:46:34.648Z,100140.84
2023-10-09T19:49:02.015Z,100139.19
2023-10-09T19:51:30.368Z,100140.59
2023-10-09T19:53:57.181Z,100146.28
2023-10-09T19:56:24.128Z,100143.25
2023-10-09T19:58:53.687Z,100144.59
2023-10-09T20:01:20.486Z,100157.47
2023-10-09T20:03:47.221Z,100154.22
2023-10-09T20:06:17.193Z,100160.22
2023-10-09T20:08:43.828Z,100157.47
2023-10-09T20:11:13.763Z,100159.44
2023-10-09T20:13:43.065Z,100162.19
2023-10-09T20:16:10.552Z,100160.22
2023-10-09T20:18:44.136Z,100159.44
2023-10-09T20:21:14.097Z,100157.78
2023-10-09T20:23:41.782Z,100169.84
2023-10-09T20:26:18.242Z,100161.88
2023-10-09T20:28:46.956Z,100164.63
2023-10-09T20:31:14.077Z,100170.66
2023-10-09T20:33:43.369Z,100165.44
2023-10-09T20:36:19.998Z,100167.09
2023-10-09T20:38:48.922Z,100172.34
2023-10-09T20:41:17.385Z,100180.59
2023-10-09T20:43:44.205Z,100178.69
2023-10-09T20:46:13.205Z,100182.22
2023-10-09T20:48:43.141Z,100184.97
2023-10-09T20:51:11.628Z,100184.19
2023-10-09T20:53:41.323Z,100197.94
2023-10-09T20:56:09.580Z,100204.22
2023-10-09T20:58:36.455Z,100202.03
2023-10-09T21:01:15.678Z,100204.53
2023-10-09T21:03:48.082Z,100211.38
2023-10-09T21:06:15.412Z,100213.28
2023-10-09T21:08:43.678Z,100214.13
2023-10-09T21:11:11.001Z,100217.66
2023-10-09T21:13:38.597Z,100218.78
2023-10-09T21:16:15.478Z,100211.41
2023-10-09T21:18:46.324Z,100217.19
2023-10-09T21:21:14.628Z,100220.50
2023-10-09T21:23:44.948Z,100215.78
2023-10-09T21:26:19.314Z,100220.50
2023-10-09T21:28:47.875Z,100217.50
2023-10-09T21:31:17.121Z,100216.38
2023-10-09T21:33:44.878Z,100215.31
2023-10-09T21:36:11.592Z,100227.13
2023-10-09T21:38:38.800Z,100221.34
2023-10-09T21:41:22.708Z,100222.47
2023-10-09T21:43:54.730Z,100236.22
2023-10-09T21:46:26.046Z,100235.91
2023-10-09T21:48:52.783Z,100230.41
2023-10-09T21:51:19.478Z,100231.81
2023-10-09T21:53:46.267Z,100226.88
2023-10-09T21:56:21.018Z,100231.50
2023-10-09T21:58:48.138Z,100233.72
2023-10-09T22:01:15.669Z,100238.97
2023-10-09T22:03:42.837Z,100234.56
2023-10-09T22:06:13.393Z,100238.66
2023-10-09T22:08:40.416Z,100231.28
2023-10-09T22:11:08.481Z,100227.97
2023-10-09T22:13:35.855Z,100234.00
2023-10-09T22:16:02.592Z,100235.09
2023-10-09T22:18:43.720Z,100235.38
2023-10-09T22:21:11.739Z,100232.66
2023-10-09T22:23:46.649Z,100235.09
2023-10-09T22:26:17.518Z,100238.13
2023-10-09T22:28:47.383Z,100236.22
2023-10-09T22:31:16.769Z,100246.91
2023-10-09T22:33:47.286Z,100240.59
2023-10-09T22:36:38.260Z,100240.88
2023-10-09T22:39:21.118Z,100239.47
2023-10-09T22:41:50.810Z,100242.22
2023-10-09T22:44:19.803Z,100248.56
2023-10-09T22:46:47.699Z,100243.84
2023-10-09T22:49:15.974Z,100247.22
2023-10-09T22:51:53.872Z,100244.47
2023-10-09T22:54:36.760Z,100238.41
2023-10-09T22:57:06.580Z,100241.16
2023-10-09T22:59:44.961Z,100239.47
2023-10-09T23:02:23.090Z,100238.91
2023-10-09T23:04:57.325Z,100240.31
2023-10-09T23:07:24.440Z,100235.66
2023-10-09T23:09:51.932Z,100233.22
2023-10-09T23:12:26.176Z,100237.06
2023-10-09T23:14:56.298Z,100246.13
2023-10-09T23:17:43.392Z,100251.88
2023-10-09T23:20:18.356Z,100254.63
2023-10-09T23:22:52.678Z,100254.38
2023-10-09T23:25:34.993Z,100257.13
2023-10-09T23:28:36.788Z,100260.69
2023-10-09T23:31:27.177Z,100259.31
2023-10-09T23:33:57.053Z,100270.28
2023-10-09T23:36:28.487Z,100277.44
2023-10-09T23:39:13.172Z,100273.03
2023-10-09T23:41:41.005Z,100271.13
2023-10-09T23:44:11.267Z,100271.38
2023-10-09T23:46:38.278Z,100256.88
2023-10-09T23:49:08.158Z,100263.75
2023-10-09T23:51:41.035Z,100263.44
2023-10-09T23:54:12.008Z,100278.03
2023-10-09T23:56:51.843Z,100272.53
2023-10-09T23:59:18.777Z,100281.34
